sensor_id;sensor_type;location;lat;lon;timestamp;temperature;humidity
60309;DHT22;50313;52.894;6.492;2023-05-18T00:01:22;6.50;99.90
60309;DHT22;50313;52.894;6.492;2023-05-18T00:03:48;6.50;99.90
60309;DHT22;50313;52.894;6.492;2023-05-18T00:06:14;6.50;99.90
60309;DHT22;50313;52.894;6.492;2023-05-18T00:08:40;6.50;99.90
60309;DHT22;50313;52.894;6.492;2023-05-18T00:11:06;6.50;99.90
60309;DHT22;50313;52.894;6.492;2023-05-18T00:13:32;6.50;99.90
60309;DHT22;50313;52.894;6.492;2023-05-18T00:15:58;6.40;99.90
60309;DHT22;50313;52.894;6.492;2023-05-18T00:18:24;6.30;99.90
60309;DHT22;50313;52.894;6.492;2023-05-18T00:20:53;6.40;99.90
60309;DHT22;50313;52.894;6.492;2023-05-18T00:23:28;6.40;99.90
60309;DHT22;50313;52.894;6.492;2023-05-18T00:25:59;6.40;99.90
60309;DHT22;50313;52.894;6.492;2023-05-18T00:28:25;6.40;99.90
60309;DHT22;50313;52.894;6.492;2023-05-18T00:30:54;6.30;99.90
60309;DHT22;50313;52.894;6.492;2023-05-18T00:33:21;6.30;99.90
60309;DHT22;50313;52.894;6.492;2023-05-18T00:35:51;6.40;99.90
60309;DHT22;50313;52.894;6.492;2023-05-18T00:38:20;6.30;99.90
60309;DHT22;50313;52.894;6.492;2023-05-18T00:40:49;6.40;99.90
60309;DHT22;50313;52.894;6.492;2023-05-18T00:43:15;6.40;99.90
60309;DHT22;50313;52.894;6.492;2023-05-18T00:45:40;6.40;99.90
60309;DHT22;50313;52.894;6.492;2023-05-18T00:48:08;6.40;99.90
60309;DHT22;50313;52.894;6.492;2023-05-18T00:50:34;6.40;99.90
60309;DHT22;50313;52.894;6.492;2023-05-18T00:53:00;6.40;99.90
60309;DHT22;50313;52.894;6.492;2023-05-18T00:55:26;6.40;99.90
60309;DHT22;50313;52.894;6.492;2023-05-18T00:57:53;6.40;99.90
60309;DHT22;50313;52.894;6.492;2023-05-18T01:00:24;6.40;99.90
60309;DHT22;50313;52.894;6.492;2023-05-18T01:02:53;6.40;99.90
60309;DHT22;50313;52.894;6.492;2023-05-18T01:05:21;6.40;99.90
60309;DHT22;50313;52.894;6.492;2023-05-18T01:07:52;6.40;99.90
60309;DHT22;50313;52.894;6.492;2023-05-18T01:10:21;6.40;99.90
60309;DHT22;50313;52.894;6.492;2023-05-18T01:12:55;6.40;99.90
60309;DHT22;50313;52.894;6.492;2023-05-18T01:15:36;6.50;99.90
60309;DHT22;50313;52.894;6.492;2023-05-18T01:18:18;6.50;99.90
60309;DHT22;50313;52.894;6.492;2023-05-18T01:20:58;6.40;99.90
60309;DHT22;50313;52.894;6.492;2023-05-18T01:23:57;6.30;99.90
60309;DHT22;50313;52.894;6.492;2023-05-18T01:26:35;6.40;99.90
60309;DHT22;50313;52.894;6.492;2023-05-18T01:29:08;6.50;99.90
60309;DHT22;50313;52.894;6.492;2023-05-18T01:31:36;6.50;99.90
60309;DHT22;50313;52.894;6.492;2023-05-18T01:34:02;6.40;99.90
60309;DHT22;50313;52.894;6.492;2023-05-18T01:36:30;6.50;99.90
60309;DHT22;50313;52.894;6.492;2023-05-18T01:38:56;6.50;99.90
60309;DHT22;50313;52.894;6.492;2023-05-18T01:41:31;6.40;99.90
60309;DHT22;50313;52.894;6.492;2023-05-18T01:44:18;6.50;99.90
60309;DHT22;50313;52.894;6.492;2023-05-18T01:46:52;6.50;99.90
60309;DHT22;50313;52.894;6.492;2023-05-18T01:51:53;6.50;99.90
60309;DHT22;50313;52.894;6.492;2023-05-18T01:54:21;6.50;99.90
60309;DHT22;50313;52.894;6.492;2023-05-18T01:56:49;6.50;99.90
60309;DHT22;50313;52.894;6.492;2023-05-18T01:59:18;6.50;99.90
60309;DHT22;50313;52.894;6.492;2023-05-18T02:01:48;6.60;99.90
60309;DHT22;50313;52.894;6.492;2023-05-18T02:04:14;6.70;99.90
60309;DHT22;50313;52.894;6.492;2023-05-18T02:06:43;6.70;99.90
60309;DHT22;50313;52.894;6.492;2023-05-18T02:09:09;6.80;99.90
60309;DHT22;50313;52.894;6.492;2023-05-18T02:11:34;6.80;99.90
60309;DHT22;50313;52.894;6.492;2023-05-18T02:14:00;6.80;99.90
60309;DHT22;50313;52.894;6.492;2023-05-18T02:16:26;6.80;99.90
60309;DHT22;50313;52.894;6.492;2023-05-18T02:18:52;6.90;99.90
60309;DHT22;50313;52.894;6.492;2023-05-18T02:21:18;6.90;99.90
60309;DHT22;50313;52.894;6.492;2023-05-18T02:23:44;6.90;99.90
60309;DHT22;50313;52.894;6.492;2023-05-18T02:26:12;7.00;99.90
60309;DHT22;50313;52.894;6.492;2023-05-18T02:28:38;7.00;99.90
60309;DHT22;50313;52.894;6.492;2023-05-18T02:31:09;7.00;99.90
60309;DHT22;50313;52.894;6.492;2023-05-18T02:33:37;7.00;99.90
60309;DHT22;50313;52.894;6.492;2023-05-18T02:36:12;7.10;99.90
60309;DHT22;50313;52.894;6.492;2023-05-18T02:38:40;7.10;99.90
60309;DHT22;50313;52.894;6.492;2023-05-18T02:41:08;7.00;99.90
60309;DHT22;50313;52.894;6.492;2023-05-18T02:43:34;7.00;99.90
60309;DHT22;50313;52.894;6.492;2023-05-18T02:46:01;7.00;99.90
60309;DHT22;50313;52.894;6.492;2023-05-18T02:48:30;7.00;99.90
60309;DHT22;50313;52.894;6.492;2023-05-18T02:50:56;7.00;99.90
60309;DHT22;50313;52.894;6.492;2023-05-18T02:53:23;7.10;99.90
60309;DHT22;50313;52.894;6.492;2023-05-18T02:55:54;7.10;99.90
60309;DHT22;50313;52.894;6.492;2023-05-18T02:58:23;7.10;99.90
60309;DHT22;50313;52.894;6.492;2023-05-18T03:00:50;7.20;99.90
60309;DHT22;50313;52.894;6.492;2023-05-18T03:03:17;7.20;99.90
60309;DHT22;50313;52.894;6.492;2023-05-18T03:05:43;7.20;99.90
60309;DHT22;50313;52.894;6.492;2023-05-18T03:08:09;7.20;99.90
60309;DHT22;50313;52.894;6.492;2023-05-18T03:10:37;7.20;99.90
60309;DHT22;50313;52.894;6.492;2023-05-18T03:13:03;7.10;99.90
60309;DHT22;50313;52.894;6.492;2023-05-18T03:15:28;7.10;99.90
60309;DHT22;50313;52.894;6.492;2023-05-18T03:17:57;7.10;99.90
60309;DHT22;50313;52.894;6.492;2023-05-18T03:20:25;7.10;99.90
60309;DHT22;50313;52.894;6.492;2023-05-18T03:22:52;7.10;99.90
60309;DHT22;50313;52.894;6.492;2023-05-18T03:25:18;7.10;99.90
60309;DHT22;50313;52.894;6.492;2023-05-18T03:27:44;7.00;99.90
60309;DHT22;50313;52.894;6.492;2023-05-18T03:30:10;7.10;99.90
60309;DHT22;50313;52.894;6.492;2023-05-18T03:32:36;7.00;99.90
60309;DHT22;50313;52.894;6.492;2023-05-18T03:35:02;7.00;99.90
60309;DHT22;50313;52.894;6.492;2023-05-18T03:37:29;7.00;99.90
60309;DHT22;50313;52.894;6.492;2023-05-18T03:39:59;7.10;99.90
60309;DHT22;50313;52.894;6.492;2023-05-18T03:42:25;7.10;99.90
60309;DHT22;50313;52.894;6.492;2023-05-18T03:44:51;7.10;99.90
60309;DHT22;50313;52.894;6.492;2023-05-18T03:47:17;7.10;99.90
60309;DHT22;50313;52.894;6.492;2023-05-18T03:49:43;7.20;99.90
60309;DHT22;50313;52.894;6.492;2023-05-18T03:52:08;7.20;99.90
60309;DHT22;50313;52.894;6.492;2023-05-18T03:54:34;7.20;99.90
60309;DHT22;50313;52.894;6.492;2023-05-18T03:57:02;7.20;99.90
60309;DHT22;50313;52.894;6.492;2023-05-18T03:59:27;7.20;99.90
60309;DHT22;50313;52.894;6.492;2023-05-18T04:01:53;7.30;99.90
60309;DHT22;50313;52.894;6.492;2023-05-18T04:04:19;7.30;99.90
60309;DHT22;50313;52.894;6.492;2023-05-18T04:06:48;7.40;99.90
60309;DHT22;50313;52.894;6.492;2023-05-18T04:09:18;7.30;99.90
60309;DHT22;50313;52.894;6.492;2023-05-18T04:11:44;7.40;99.90
60309;DHT22;50313;52.894;6.492;2023-05-18T04:14:11;7.40;99.90
60309;DHT22;50313;52.894;6.492;2023-05-18T04:16:37;7.40;99.90
60309;DHT22;50313;52.894;6.492;2023-05-18T04:19:02;7.40;99.90
60309;DHT22;50313;52.894;6.492;2023-05-18T04:21:30;7.50;99.90
60309;DHT22;50313;52.894;6.492;2023-05-18T04:24:01;7.50;99.90
60309;DHT22;50313;52.894;6.492;2023-05-18T04:26:33;7.50;99.90
60309;DHT22;50313;52.894;6.492;2023-05-18T04:29:02;7.50;99.90
60309;DHT22;50313;52.894;6.492;2023-05-18T04:31:28;7.50;99.90
60309;DHT22;50313;52.894;6.492;2023-05-18T04:33:57;7.60;99.90
60309;DHT22;50313;52.894;6.492;2023-05-18T04:36:25;7.60;99.90
60309;DHT22;50313;52.894;6.492;2023-05-18T04:38:57;7.70;99.90
60309;DHT22;50313;52.894;6.492;2023-05-18T04:41:24;7.70;99.90
60309;DHT22;50313;52.894;6.492;2023-05-18T04:43:50;7.80;99.90
60309;DHT22;50313;52.894;6.492;2023-05-18T04:46:16;7.80;99.90
60309;DHT22;50313;52.894;6.492;2023-05-18T04:48:42;7.90;99.90
60309;DHT22;50313;52.894;6.492;2023-05-18T04:51:08;7.90;99.90
60309;DHT22;50313;52.894;6.492;2023-05-18T04:53:34;8.00;99.90
60309;DHT22;50313;52.894;6.492;2023-05-18T04:56:03;8.00;99.90
60309;DHT22;50313;52.894;6.492;2023-05-18T04:58:29;8.10;99.90
60309;DHT22;50313;52.894;6.492;2023-05-18T05:00:55;8.10;99.90
60309;DHT22;50313;52.894;6.492;2023-05-18T05:03:21;8.20;99.90
60309;DHT22;50313;52.894;6.492;2023-05-18T05:05:47;8.20;99.90
60309;DHT22;50313;52.894;6.492;2023-05-18T05:08:14;8.30;99.90
60309;DHT22;50313;52.894;6.492;2023-05-18T05:10:40;8.30;99.90
60309;DHT22;50313;52.894;6.492;2023-05-18T05:13:06;8.40;99.90
60309;DHT22;50313;52.894;6.492;2023-05-18T05:15:35;8.40;99.90
60309;DHT22;50313;52.894;6.492;2023-05-18T05:18:01;8.50;99.90
60309;DHT22;50313;52.894;6.492;2023-05-18T05:20:27;8.50;99.90
60309;DHT22;50313;52.894;6.492;2023-05-18T05:22:55;8.60;99.90
60309;DHT22;50313;52.894;6.492;2023-05-18T05:25:21;8.70;99.90
60309;DHT22;50313;52.894;6.492;2023-05-18T05:27:49;8.70;99.90
60309;DHT22;50313;52.894;6.492;2023-05-18T05:30:15;8.80;99.90
60309;DHT22;50313;52.894;6.492;2023-05-18T05:32:41;8.90;99.90
60309;DHT22;50313;52.894;6.492;2023-05-18T05:35:07;8.90;99.90
60309;DHT22;50313;52.894;6.492;2023-05-18T05:37:33;9.00;99.90
60309;DHT22;50313;52.894;6.492;2023-05-18T05:39:59;9.10;99.90
60309;DHT22;50313;52.894;6.492;2023-05-18T05:42:25;9.10;99.90
60309;DHT22;50313;52.894;6.492;2023-05-18T05:44:51;9.20;99.90
60309;DHT22;50313;52.894;6.492;2023-05-18T05:47:20;9.20;99.00
60309;DHT22;50313;52.894;6.492;2023-05-18T05:49:46;9.20;98.70
60309;DHT22;50313;52.894;6.492;2023-05-18T05:52:12;9.30;98.50
60309;DHT22;50313;52.894;6.492;2023-05-18T05:54:39;9.30;99.30
60309;DHT22;50313;52.894;6.492;2023-05-18T05:57:05;9.40;98.80
60309;DHT22;50313;52.894;6.492;2023-05-18T05:59:31;9.40;98.30
60309;DHT22;50313;52.894;6.492;2023-05-18T06:01:57;9.40;98.10
60309;DHT22;50313;52.894;6.492;2023-05-18T06:04:23;9.60;98.70
60309;DHT22;50313;52.894;6.492;2023-05-18T06:06:51;9.60;98.80
60309;DHT22;50313;52.894;6.492;2023-05-18T06:09:18;9.70;98.30
60309;DHT22;50313;52.894;6.492;2023-05-18T06:11:47;9.80;97.30
60309;DHT22;50313;52.894;6.492;2023-05-18T06:14:15;9.70;95.60
60309;DHT22;50313;52.894;6.492;2023-05-18T06:16:41;9.80;96.50
60309;DHT22;50313;52.894;6.492;2023-05-18T06:19:07;9.90;95.60
60309;DHT22;50313;52.894;6.492;2023-05-18T06:21:35;10.00;95.50
60309;DHT22;50313;52.894;6.492;2023-05-18T06:24:05;10.00;95.30
60309;DHT22;50313;52.894;6.492;2023-05-18T06:26:31;10.10;95.20
60309;DHT22;50313;52.894;6.492;2023-05-18T06:29:00;10.00;95.10
60309;DHT22;50313;52.894;6.492;2023-05-18T06:31:25;10.20;95.10
60309;DHT22;50313;52.894;6.492;2023-05-18T06:33:57;10.30;95.40
60309;DHT22;50313;52.894;6.492;2023-05-18T06:36:28;10.40;95.30
60309;DHT22;50313;52.894;6.492;2023-05-18T06:38:54;10.50;95.20
60309;DHT22;50313;52.894;6.492;2023-05-18T06:41:23;10.60;95.10
60309;DHT22;50313;52.894;6.492;2023-05-18T06:43:49;10.60;94.20
60309;DHT22;50313;52.894;6.492;2023-05-18T06:46:23;10.70;94.20
60309;DHT22;50313;52.894;6.492;2023-05-18T06:48:48;10.90;94.50
60309;DHT22;50313;52.894;6.492;2023-05-18T06:51:15;10.80;92.60
60309;DHT22;50313;52.894;6.492;2023-05-18T06:53:42;10.80;93.00
60309;DHT22;50313;52.894;6.492;2023-05-18T06:56:08;10.90;92.80
60309;DHT22;50313;52.894;6.492;2023-05-18T06:58:36;10.90;91.50
60309;DHT22;50313;52.894;6.492;2023-05-18T07:01:02;10.90;92.40
60309;DHT22;50313;52.894;6.492;2023-05-18T07:03:31;10.80;91.60
60309;DHT22;50313;52.894;6.492;2023-05-18T07:05:58;10.90;91.50
60309;DHT22;50313;52.894;6.492;2023-05-18T07:08:24;11.00;91.60
60309;DHT22;50313;52.894;6.492;2023-05-18T07:10:52;11.00;92.40
60309;DHT22;50313;52.894;6.492;2023-05-18T07:13:19;11.00;91.90
60309;DHT22;50313;52.894;6.492;2023-05-18T07:15:47;11.10;91.60
60309;DHT22;50313;52.894;6.492;2023-05-18T07:18:13;11.20;91.70
60309;DHT22;50313;52.894;6.492;2023-05-18T07:20:39;11.00;90.90
60309;DHT22;50313;52.894;6.492;2023-05-18T07:23:05;11.00;90.70
60309;DHT22;50313;52.894;6.492;2023-05-18T07:25:31;11.10;91.20
60309;DHT22;50313;52.894;6.492;2023-05-18T07:27:57;11.20;90.70
60309;DHT22;50313;52.894;6.492;2023-05-18T07:30:22;11.20;90.90
60309;DHT22;50313;52.894;6.492;2023-05-18T07:32:54;11.30;91.10
60309;DHT22;50313;52.894;6.492;2023-05-18T07:35:21;11.20;90.90
60309;DHT22;50313;52.894;6.492;2023-05-18T07:37:48;11.40;90.80
60309;DHT22;50313;52.894;6.492;2023-05-18T07:40:16;11.40;90.70
60309;DHT22;50313;52.894;6.492;2023-05-18T07:42:43;11.30;90.10
60309;DHT22;50313;52.894;6.492;2023-05-18T07:45:09;11.10;89.80
60309;DHT22;50313;52.894;6.492;2023-05-18T07:47:35;11.20;89.90
60309;DHT22;50313;52.894;6.492;2023-05-18T07:50:01;11.40;90.60
60309;DHT22;50313;52.894;6.492;2023-05-18T07:52:27;11.20;89.50
60309;DHT22;50313;52.894;6.492;2023-05-18T07:54:54;11.70;90.30
60309;DHT22;50313;52.894;6.492;2023-05-18T07:57:29;11.70;87.90
60309;DHT22;50313;52.894;6.492;2023-05-18T07:59:55;12.10;89.50
60309;DHT22;50313;52.894;6.492;2023-05-18T08:02:21;12.40;88.40
60309;DHT22;50313;52.894;6.492;2023-05-18T08:04:50;12.50;87.90
60309;DHT22;50313;52.894;6.492;2023-05-18T08:07:19;12.50;86.20
60309;DHT22;50313;52.894;6.492;2023-05-18T08:09:45;12.70;84.90
60309;DHT22;50313;52.894;6.492;2023-05-18T08:12:11;12.40;83.50
60309;DHT22;50313;52.894;6.492;2023-05-18T08:14:37;12.60;84.70
60309;DHT22;50313;52.894;6.492;2023-05-18T08:17:03;12.70;83.80
60309;DHT22;50313;52.894;6.492;2023-05-18T08:19:29;12.50;83.00
60309;DHT22;50313;52.894;6.492;2023-05-18T08:21:55;12.60;85.70
60309;DHT22;50313;52.894;6.492;2023-05-18T08:24:21;12.40;86.00
60309;DHT22;50313;52.894;6.492;2023-05-18T08:26:47;12.60;84.80
60309;DHT22;50313;52.894;6.492;2023-05-18T08:29:13;12.90;84.70
60309;DHT22;50313;52.894;6.492;2023-05-18T08:31:39;12.80;84.10
60309;DHT22;50313;52.894;6.492;2023-05-18T08:34:07;13.10;85.00
60309;DHT22;50313;52.894;6.492;2023-05-18T08:36:34;13.40;86.40
60309;DHT22;50313;52.894;6.492;2023-05-18T08:39:00;13.30;82.10
60309;DHT22;50313;52.894;6.492;2023-05-18T08:41:33;13.50;82.70
60309;DHT22;50313;52.894;6.492;2023-05-18T08:44:08;13.90;83.60
60309;DHT22;50313;52.894;6.492;2023-05-18T08:46:41;13.90;83.10
60309;DHT22;50313;52.894;6.492;2023-05-18T08:49:09;13.70;82.80
60309;DHT22;50313;52.894;6.492;2023-05-18T08:51:39;13.90;82.80
60309;DHT22;50313;52.894;6.492;2023-05-18T08:54:10;13.40;81.80
60309;DHT22;50313;52.894;6.492;2023-05-18T08:56:42;13.40;80.90
60309;DHT22;50313;52.894;6.492;2023-05-18T08:59:10;13.40;83.10
60309;DHT22;50313;52.894;6.492;2023-05-18T09:01:36;13.10;83.20
60309;DHT22;50313;52.894;6.492;2023-05-18T09:04:03;13.40;81.80
60309;DHT22;50313;52.894;6.492;2023-05-18T09:06:29;13.90;83.60
60309;DHT22;50313;52.894;6.492;2023-05-18T09:08:57;14.30;83.70
60309;DHT22;50313;52.894;6.492;2023-05-18T09:11:24;13.90;80.30
60309;DHT22;50313;52.894;6.492;2023-05-18T09:13:50;14.20;82.50
60309;DHT22;50313;52.894;6.492;2023-05-18T09:16:17;14.10;79.90
60309;DHT22;50313;52.894;6.492;2023-05-18T09:18:44;14.20;79.80
60309;DHT22;50313;52.894;6.492;2023-05-18T09:21:11;13.90;80.10
60309;DHT22;50313;52.894;6.492;2023-05-18T09:23:38;13.90;79.70
60309;DHT22;50313;52.894;6.492;2023-05-18T09:26:05;13.90;79.20
60309;DHT22;50313;52.894;6.492;2023-05-18T09:28:41;13.80;81.80
60309;DHT22;50313;52.894;6.492;2023-05-18T09:31:09;14.10;80.10
60309;DHT22;50313;52.894;6.492;2023-05-18T09:33:39;14.50;81.50
60309;DHT22;50313;52.894;6.492;2023-05-18T09:36:09;14.70;80.10
60309;DHT22;50313;52.894;6.492;2023-05-18T09:38:39;14.40;77.30
60309;DHT22;50313;52.894;6.492;2023-05-18T09:41:16;14.40;79.10
60309;DHT22;50313;52.894;6.492;2023-05-18T09:43:49;14.80;78.60
60309;DHT22;50313;52.894;6.492;2023-05-18T09:46:15;14.80;78.90
60309;DHT22;50313;52.894;6.492;2023-05-18T09:48:45;14.90;79.90
60309;DHT22;50313;52.894;6.492;2023-05-18T09:51:13;15.00;78.80
60309;DHT22;50313;52.894;6.492;2023-05-18T09:54:03;14.50;75.40
60309;DHT22;50313;52.894;6.492;2023-05-18T09:56:35;14.60;77.20
60309;DHT22;50313;52.894;6.492;2023-05-18T09:59:10;14.60;77.50
60309;DHT22;50313;52.894;6.492;2023-05-18T10:01:54;14.20;78.50
60309;DHT22;50313;52.894;6.492;2023-05-18T10:04:34;14.20;82.10
60309;DHT22;50313;52.894;6.492;2023-05-18T10:07:00;14.10;80.70
60309;DHT22;50313;52.894;6.492;2023-05-18T10:09:27;13.90;79.80
60309;DHT22;50313;52.894;6.492;2023-05-18T10:11:53;13.80;79.90
60309;DHT22;50313;52.894;6.492;2023-05-18T10:14:23;14.30;80.40
60309;DHT22;50313;52.894;6.492;2023-05-18T10:16:52;14.10;79.20
60309;DHT22;50313;52.894;6.492;2023-05-18T10:19:21;14.00;78.10
60309;DHT22;50313;52.894;6.492;2023-05-18T10:21:48;14.00;80.60
60309;DHT22;50313;52.894;6.492;2023-05-18T10:24:17;14.40;80.50
60309;DHT22;50313;52.894;6.492;2023-05-18T10:26:45;14.80;80.00
60309;DHT22;50313;52.894;6.492;2023-05-18T10:29:14;15.00;78.10
60309;DHT22;50313;52.894;6.492;2023-05-18T10:31:41;15.00;77.80
60309;DHT22;50313;52.894;6.492;2023-05-18T10:34:11;14.80;79.40
60309;DHT22;50313;52.894;6.492;2023-05-18T10:36:37;14.90;79.80
60309;DHT22;50313;52.894;6.492;2023-05-18T10:39:06;15.10;77.40
60309;DHT22;50313;52.894;6.492;2023-05-18T10:41:39;15.10;78.10
60309;DHT22;50313;52.894;6.492;2023-05-18T10:44:06;15.20;80.70
60309;DHT22;50313;52.894;6.492;2023-05-18T10:46:32;15.90;77.20
60309;DHT22;50313;52.894;6.492;2023-05-18T10:49:03;16.00;77.50
60309;DHT22;50313;52.894;6.492;2023-05-18T10:51:38;15.90;75.20
60309;DHT22;50313;52.894;6.492;2023-05-18T10:54:13;15.50;77.90
60309;DHT22;50313;52.894;6.492;2023-05-18T10:56:44;15.80;76.00
60309;DHT22;50313;52.894;6.492;2023-05-18T10:59:13;15.80;76.30
60309;DHT22;50313;52.894;6.492;2023-05-18T11:01:39;15.50;74.80
60309;DHT22;50313;52.894;6.492;2023-05-18T11:04:06;15.90;78.40
60309;DHT22;50313;52.894;6.492;2023-05-18T11:06:32;15.70;74.90
60309;DHT22;50313;52.894;6.492;2023-05-18T11:09:00;15.80;75.00
60309;DHT22;50313;52.894;6.492;2023-05-18T11:11:29;16.20;78.30
60309;DHT22;50313;52.894;6.492;2023-05-18T11:14:14;16.00;75.70
60309;DHT22;50313;52.894;6.492;2023-05-18T11:16:48;15.90;75.90
60309;DHT22;50313;52.894;6.492;2023-05-18T11:19:14;15.70;74.50
60309;DHT22;50313;52.894;6.492;2023-05-18T11:29:31;15.20;78.30
60309;DHT22;50313;52.894;6.492;2023-05-18T11:31:57;15.40;77.90
60309;DHT22;50313;52.894;6.492;2023-05-18T11:34:48;15.50;78.10
60309;DHT22;50313;52.894;6.492;2023-05-18T11:37:16;15.40;78.30
60309;DHT22;50313;52.894;6.492;2023-05-18T11:39:53;15.70;79.70
60309;DHT22;50313;52.894;6.492;2023-05-18T11:42:19;15.60;79.00
60309;DHT22;50313;52.894;6.492;2023-05-18T11:44:52;15.80;76.90
60309;DHT22;50313;52.894;6.492;2023-05-18T11:47:29;16.00;76.00
60309;DHT22;50313;52.894;6.492;2023-05-18T11:49:56;15.80;73.60
60309;DHT22;50313;52.894;6.492;2023-05-18T11:52:23;15.90;75.10
60309;DHT22;50313;52.894;6.492;2023-05-18T11:54:57;15.80;74.60
60309;DHT22;50313;52.894;6.492;2023-05-18T11:57:25;15.80;77.70
60309;DHT22;50313;52.894;6.492;2023-05-18T11:59:56;15.70;76.30
60309;DHT22;50313;52.894;6.492;2023-05-18T12:02:28;15.80;75.70
60309;DHT22;50313;52.894;6.492;2023-05-18T12:04:58;16.00;77.50
60309;DHT22;50313;52.894;6.492;2023-05-18T12:07:26;15.80;75.10
60309;DHT22;50313;52.894;6.492;2023-05-18T12:10:02;16.20;76.20
60309;DHT22;50313;52.894;6.492;2023-05-18T12:12:28;16.20;73.70
60309;DHT22;50313;52.894;6.492;2023-05-18T12:15:07;16.40;75.20
60309;DHT22;50313;52.894;6.492;2023-05-18T12:17:41;16.30;74.70
60309;DHT22;50313;52.894;6.492;2023-05-18T12:20:12;16.50;77.10
60309;DHT22;50313;52.894;6.492;2023-05-18T12:22:39;16.40;75.00
60309;DHT22;50313;52.894;6.492;2023-05-18T12:25:05;16.50;74.70
60309;DHT22;50313;52.894;6.492;2023-05-18T12:27:40;16.50;78.30
60309;DHT22;50313;52.894;6.492;2023-05-18T12:30:27;16.90;75.50
60309;DHT22;50313;52.894;6.492;2023-05-18T12:33:00;17.00;70.90
60309;DHT22;50313;52.894;6.492;2023-05-18T12:35:30;16.90;73.70
60309;DHT22;50313;52.894;6.492;2023-05-18T12:37:57;16.90;72.70
60309;DHT22;50313;52.894;6.492;2023-05-18T12:40:33;16.60;72.10
60309;DHT22;50313;52.894;6.492;2023-05-18T12:43:02;16.80;74.90
60309;DHT22;50313;52.894;6.492;2023-05-18T12:45:31;16.80;73.70
60309;DHT22;50313;52.894;6.492;2023-05-18T12:48:10;17.10;73.20
60309;DHT22;50313;52.894;6.492;2023-05-18T12:50:49;17.20;74.10
60309;DHT22;50313;52.894;6.492;2023-05-18T12:53:20;16.80;72.60
60309;DHT22;50313;52.894;6.492;2023-05-18T12:55:58;17.20;74.50
60309;DHT22;50313;52.894;6.492;2023-05-18T12:58:24;17.10;74.10
60309;DHT22;50313;52.894;6.492;2023-05-18T13:00:50;17.00;72.50
60309;DHT22;50313;52.894;6.492;2023-05-18T13:03:19;16.80;73.20
60309;DHT22;50313;52.894;6.492;2023-05-18T13:06:04;16.60;72.00
60309;DHT22;50313;52.894;6.492;2023-05-18T13:08:36;16.90;73.90
60309;DHT22;50313;52.894;6.492;2023-05-18T13:11:08;16.80;73.90
60309;DHT22;50313;52.894;6.492;2023-05-18T13:13:35;17.10;72.80
60309;DHT22;50313;52.894;6.492;2023-05-18T13:16:08;17.40;71.60
60309;DHT22;50313;52.894;6.492;2023-05-18T13:18:44;17.10;70.00
60309;DHT22;50313;52.894;6.492;2023-05-18T13:21:11;17.00;69.60
60309;DHT22;50313;52.894;6.492;2023-05-18T13:23:37;17.10;69.90
60309;DHT22;50313;52.894;6.492;2023-05-18T13:26:06;17.20;71.40
60309;DHT22;50313;52.894;6.492;2023-05-18T13:28:32;17.20;68.60
60309;DHT22;50313;52.894;6.492;2023-05-18T13:30:58;17.20;70.90
60309;DHT22;50313;52.894;6.492;2023-05-18T13:33:26;17.60;70.90
60309;DHT22;50313;52.894;6.492;2023-05-18T13:35:52;17.80;73.30
60309;DHT22;50313;52.894;6.492;2023-05-18T13:38:18;17.40;72.00
60309;DHT22;50313;52.894;6.492;2023-05-18T13:40:43;17.50;72.30
60309;DHT22;50313;52.894;6.492;2023-05-18T13:43:11;17.20;72.00
60309;DHT22;50313;52.894;6.492;2023-05-18T13:45:37;17.50;71.90
60309;DHT22;50313;52.894;6.492;2023-05-18T13:48:02;17.40;70.30
60309;DHT22;50313;52.894;6.492;2023-05-18T13:50:31;17.40;71.10
60309;DHT22;50313;52.894;6.492;2023-05-18T13:53:00;17.30;70.30
60309;DHT22;50313;52.894;6.492;2023-05-18T13:55:26;17.20;71.80
60309;DHT22;50313;52.894;6.492;2023-05-18T13:57:52;17.40;72.50
60309;DHT22;50313;52.894;6.492;2023-05-18T14:00:18;17.60;73.10
60309;DHT22;50313;52.894;6.492;2023-05-18T14:02:45;17.60;72.60
60309;DHT22;50313;52.894;6.492;2023-05-18T14:05:12;17.70;70.90
60309;DHT22;50313;52.894;6.492;2023-05-18T14:07:41;17.80;72.80
60309;DHT22;50313;52.894;6.492;2023-05-18T14:10:11;17.50;71.80
60309;DHT22;50313;52.894;6.492;2023-05-18T14:12:38;17.80;71.30
60309;DHT22;50313;52.894;6.492;2023-05-18T14:15:07;18.00;70.50
60309;DHT22;50313;52.894;6.492;2023-05-18T14:17:36;17.90;70.90
60309;DHT22;50313;52.894;6.492;2023-05-18T14:20:02;17.80;72.40
60309;DHT22;50313;52.894;6.492;2023-05-18T14:22:34;17.50;70.80
60309;DHT22;50313;52.894;6.492;2023-05-18T14:25:02;17.40;69.70
60309;DHT22;50313;52.894;6.492;2023-05-18T14:27:28;17.70;70.80
60309;DHT22;50313;52.894;6.492;2023-05-18T14:29:54;17.80;70.60
60309;DHT22;50313;52.894;6.492;2023-05-18T14:32:22;17.70;72.20
60309;DHT22;50313;52.894;6.492;2023-05-18T14:34:49;17.80;74.60
60309;DHT22;50313;52.894;6.492;2023-05-18T14:37:20;18.00;74.30
60309;DHT22;50313;52.894;6.492;2023-05-18T14:39:46;18.30;74.10
60309;DHT22;50313;52.894;6.492;2023-05-18T14:42:13;18.30;71.30
60309;DHT22;50313;52.894;6.492;2023-05-18T14:44:38;18.30;71.50
60309;DHT22;50313;52.894;6.492;2023-05-18T14:47:07;18.20;71.50
60309;DHT22;50313;52.894;6.492;2023-05-18T14:49:34;18.50;71.20
60309;DHT22;50313;52.894;6.492;2023-05-18T14:52:01;18.50;71.70
60309;DHT22;50313;52.894;6.492;2023-05-18T14:54:30;18.20;71.60
60309;DHT22;50313;52.894;6.492;2023-05-18T14:56:56;17.80;74.20
60309;DHT22;50313;52.894;6.492;2023-05-18T14:59:21;17.60;75.80
60309;DHT22;50313;52.894;6.492;2023-05-18T15:01:50;17.80;74.80
60309;DHT22;50313;52.894;6.492;2023-05-18T15:04:19;18.10;76.00
60309;DHT22;50313;52.894;6.492;2023-05-18T15:06:47;18.40;75.20
60309;DHT22;50313;52.894;6.492;2023-05-18T15:09:13;18.70;74.00
60309;DHT22;50313;52.894;6.492;2023-05-18T15:11:39;19.10;73.50
60309;DHT22;50313;52.894;6.492;2023-05-18T15:14:05;19.30;71.80
60309;DHT22;50313;52.894;6.492;2023-05-18T15:16:30;19.60;71.70
60309;DHT22;50313;52.894;6.492;2023-05-18T15:18:57;19.10;70.90
60309;DHT22;50313;52.894;6.492;2023-05-18T15:21:22;19.20;71.60
60309;DHT22;50313;52.894;6.492;2023-05-18T15:23:50;19.10;72.40
60309;DHT22;50313;52.894;6.492;2023-05-18T15:26:18;19.20;72.50
60309;DHT22;50313;52.894;6.492;2023-05-18T15:28:46;19.00;74.00
60309;DHT22;50313;52.894;6.492;2023-05-18T15:31:17;18.30;75.10
60309;DHT22;50313;52.894;6.492;2023-05-18T15:33:43;18.60;75.00
60309;DHT22;50313;52.894;6.492;2023-05-18T15:36:08;18.50;75.30
60309;DHT22;50313;52.894;6.492;2023-05-18T15:38:34;18.50;75.50
60309;DHT22;50313;52.894;6.492;2023-05-18T15:41:00;18.60;75.40
60309;DHT22;50313;52.894;6.492;2023-05-18T15:43:26;18.50;75.60
60309;DHT22;50313;52.894;6.492;2023-05-18T15:45:56;18.60;74.10
60309;DHT22;50313;52.894;6.492;2023-05-18T15:48:22;18.20;75.20
60309;DHT22;50313;52.894;6.492;2023-05-18T15:50:50;18.10;76.90
60309;DHT22;50313;52.894;6.492;2023-05-18T15:53:18;18.40;75.80
60309;DHT22;50313;52.894;6.492;2023-05-18T15:55:44;18.10;75.90